sensor_id;sensor_type;location;lat;lon;timestamp;P1;durP1;ratioP1;P2;durP2;ratioP2
13325;SDS011;6732;51.044;3.746;2022-07-29T00:00:44;3.80;;;1.98;;
13325;SDS011;6732;51.044;3.746;2022-07-29T00:03:11;4.38;;;1.83;;
13325;SDS011;6732;51.044;3.746;2022-07-29T00:05:38;3.78;;;2.15;;
13325;SDS011;6732;51.044;3.746;2022-07-29T00:08:06;3.72;;;2.08;;
13325;SDS011;6732;51.044;3.746;2022-07-29T00:10:32;3.80;;;1.90;;
13325;SDS011;6732;51.044;3.746;2022-07-29T00:12:59;3.95;;;1.80;;
13325;SDS011;6732;51.044;3.746;2022-07-29T00:15:26;2.65;;;2.00;;
13325;SDS011;6732;51.044;3.746;2022-07-29T00:17:52;3.55;;;2.00;;
13325;SDS011;6732;51.044;3.746;2022-07-29T00:20:18;6.05;;;1.90;;
13325;SDS011;6732;51.044;3.746;2022-07-29T00:22:44;3.35;;;2.03;;
13325;SDS011;6732;51.044;3.746;2022-07-29T00:25:11;2.80;;;1.73;;
13325;SDS011;6732;51.044;3.746;2022-07-29T00:27:38;4.65;;;2.08;;
13325;SDS011;6732;51.044;3.746;2022-07-29T00:30:04;4.70;;;2.22;;
13325;SDS011;6732;51.044;3.746;2022-07-29T00:32:31;5.10;;;2.10;;
13325;SDS011;6732;51.044;3.746;2022-07-29T00:34:57;3.78;;;2.10;;
13325;SDS011;6732;51.044;3.746;2022-07-29T00:37:41;2.63;;;2.00;;
13325;SDS011;6732;51.044;3.746;2022-07-29T00:40:07;3.67;;;2.00;;
13325;SDS011;6732;51.044;3.746;2022-07-29T00:42:44;4.00;;;2.40;;
13325;SDS011;6732;51.044;3.746;2022-07-29T00:45:11;5.32;;;2.20;;
13325;SDS011;6732;51.044;3.746;2022-07-29T00:47:38;3.17;;;2.03;;
13325;SDS011;6732;51.044;3.746;2022-07-29T00:50:04;4.07;;;2.20;;
13325;SDS011;6732;51.044;3.746;2022-07-29T00:52:31;3.78;;;2.05;;
13325;SDS011;6732;51.044;3.746;2022-07-29T00:54:59;3.80;;;2.30;;
13325;SDS011;6732;51.044;3.746;2022-07-29T00:57:25;3.97;;;2.00;;
13325;SDS011;6732;51.044;3.746;2022-07-29T00:59:51;4.28;;;1.90;;
13325;SDS011;6732;51.044;3.746;2022-07-29T01:02:17;3.42;;;2.20;;
13325;SDS011;6732;51.044;3.746;2022-07-29T01:04:43;3.97;;;2.00;;
13325;SDS011;6732;51.044;3.746;2022-07-29T01:07:09;4.43;;;2.17;;
13325;SDS011;6732;51.044;3.746;2022-07-29T01:09:36;4.88;;;1.92;;
13325;SDS011;6732;51.044;3.746;2022-07-29T01:12:02;3.10;;;1.92;;
13325;SDS011;6732;51.044;3.746;2022-07-29T01:14:30;2.92;;;2.00;;
13325;SDS011;6732;51.044;3.746;2022-07-29T01:19:48;4.35;;;2.10;;
13325;SDS011;6732;51.044;3.746;2022-07-29T01:31:10;3.35;;;1.98;;
13325;SDS011;6732;51.044;3.746;2022-07-29T01:33:39;2.40;;;1.85;;
13325;SDS011;6732;51.044;3.746;2022-07-29T01:36:17;1.92;;;1.75;;
13325;SDS011;6732;51.044;3.746;2022-07-29T01:39:05;5.70;;;1.95;;
13325;SDS011;6732;51.044;3.746;2022-07-29T01:41:45;7.38;;;1.95;;
13325;SDS011;6732;51.044;3.746;2022-07-29T01:44:30;2.88;;;2.00;;
13325;SDS011;6732;51.044;3.746;2022-07-29T01:47:00;3.35;;;2.28;;
13325;SDS011;6732;51.044;3.746;2022-07-29T01:49:33;5.03;;;2.17;;
13325;SDS011;6732;51.044;3.746;2022-07-29T01:54:38;3.30;;;2.08;;
13325;SDS011;6732;51.044;3.746;2022-07-29T01:57:11;3.92;;;2.13;;
13325;SDS011;6732;51.044;3.746;2022-07-29T01:59:40;2.63;;;1.70;;
13325;SDS011;6732;51.044;3.746;2022-07-29T02:02:08;4.07;;;1.95;;
13325;SDS011;6732;51.044;3.746;2022-07-29T02:04:36;5.35;;;1.88;;
13325;SDS011;6732;51.044;3.746;2022-07-29T02:07:05;4.75;;;1.77;;
13325;SDS011;6732;51.044;3.746;2022-07-29T02:09:36;3.47;;;1.90;;
13325;SDS011;6732;51.044;3.746;2022-07-29T02:12:04;4.03;;;2.10;;
13325;SDS011;6732;51.044;3.746;2022-07-29T02:14:37;2.22;;;1.88;;
13325;SDS011;6732;51.044;3.746;2022-07-29T02:17:10;3.40;;;1.80;;
13325;SDS011;6732;51.044;3.746;2022-07-29T02:19:38;2.08;;;1.75;;
13325;SDS011;6732;51.044;3.746;2022-07-29T02:22:06;5.72;;;1.90;;
13325;SDS011;6732;51.044;3.746;2022-07-29T02:24:35;3.00;;;1.70;;
13325;SDS011;6732;51.044;3.746;2022-07-29T02:27:02;4.40;;;1.80;;
13325;SDS011;6732;51.044;3.746;2022-07-29T02:29:29;7.65;;;1.77;;
13325;SDS011;6732;51.044;3.746;2022-07-29T02:31:57;4.50;;;2.05;;
13325;SDS011;6732;51.044;3.746;2022-07-29T02:34:25;3.00;;;1.73;;
13325;SDS011;6732;51.044;3.746;2022-07-29T02:36:53;2.95;;;1.65;;
13325;SDS011;6732;51.044;3.746;2022-07-29T02:39:20;4.47;;;1.60;;
13325;SDS011;6732;51.044;3.746;2022-07-29T02:41:58;2.47;;;2.13;;
13325;SDS011;6732;51.044;3.746;2022-07-29T02:44:28;4.57;;;1.75;;
13325;SDS011;6732;51.044;3.746;2022-07-29T02:46:58;3.78;;;1.65;;
13325;SDS011;6732;51.044;3.746;2022-07-29T02:49:47;2.38;;;1.80;;
13325;SDS011;6732;51.044;3.746;2022-07-29T02:52:54;4.32;;;1.70;;
13325;SDS011;6732;51.044;3.746;2022-07-29T02:55:34;3.10;;;1.80;;
13325;SDS011;6732;51.044;3.746;2022-07-29T03:00:51;2.55;;;1.90;;
13325;SDS011;6732;51.044;3.746;2022-07-29T03:03:18;2.90;;;1.70;;
13325;SDS011;6732;51.044;3.746;2022-07-29T03:05:46;3.83;;;1.90;;
13325;SDS011;6732;51.044;3.746;2022-07-29T03:08:12;2.38;;;2.00;;
13325;SDS011;6732;51.044;3.746;2022-07-29T03:10:41;4.25;;;1.88;;
13325;SDS011;6732;51.044;3.746;2022-07-29T03:13:10;3.33;;;1.70;;
13325;SDS011;6732;51.044;3.746;2022-07-29T03:15:38;4.07;;;1.80;;
13325;SDS011;6732;51.044;3.746;2022-07-29T03:18:05;3.50;;;1.52;;
13325;SDS011;6732;51.044;3.746;2022-07-29T03:20:31;3.70;;;1.80;;
13325;SDS011;6732;51.044;3.746;2022-07-29T03:22:57;2.50;;;1.65;;
13325;SDS011;6732;51.044;3.746;2022-07-29T03:25:23;2.55;;;1.77;;
13325;SDS011;6732;51.044;3.746;2022-07-29T03:27:50;2.58;;;1.95;;
13325;SDS011;6732;51.044;3.746;2022-07-29T03:30:16;4.13;;;2.00;;
13325;SDS011;6732;51.044;3.746;2022-07-29T03:32:42;2.70;;;1.98;;
13325;SDS011;6732;51.044;3.746;2022-07-29T03:35:09;3.90;;;1.85;;
13325;SDS011;6732;51.044;3.746;2022-07-29T03:37:35;5.03;;;2.38;;
13325;SDS011;6732;51.044;3.746;2022-07-29T03:40:03;3.72;;;2.20;;
13325;SDS011;6732;51.044;3.746;2022-07-29T03:42:33;2.10;;;1.90;;
13325;SDS011;6732;51.044;3.746;2022-07-29T03:45:02;3.22;;;1.73;;
13325;SDS011;6732;51.044;3.746;2022-07-29T03:47:31;4.38;;;1.75;;
13325;SDS011;6732;51.044;3.746;2022-07-29T03:50:00;3.85;;;1.73;;
13325;SDS011;6732;51.044;3.746;2022-07-29T03:52:31;3.03;;;1.70;;
13325;SDS011;6732;51.044;3.746;2022-07-29T03:54:57;3.50;;;2.00;;
13325;SDS011;6732;51.044;3.746;2022-07-29T03:57:24;3.15;;;1.90;;
13325;SDS011;6732;51.044;3.746;2022-07-29T03:59:53;2.95;;;1.90;;
13325;SDS011;6732;51.044;3.746;2022-07-29T04:02:20;5.70;;;1.98;;
13325;SDS011;6732;51.044;3.746;2022-07-29T04:04:46;2.10;;;1.80;;
13325;SDS011;6732;51.044;3.746;2022-07-29T04:07:13;4.28;;;1.80;;
13325;SDS011;6732;51.044;3.746;2022-07-29T04:09:40;2.65;;;2.00;;
13325;SDS011;6732;51.044;3.746;2022-07-29T04:12:06;2.72;;;1.88;;
13325;SDS011;6732;51.044;3.746;2022-07-29T04:14:32;2.53;;;2.05;;
13325;SDS011;6732;51.044;3.746;2022-07-29T04:17:02;3.97;;;2.22;;
13325;SDS011;6732;51.044;3.746;2022-07-29T04:19:30;4.10;;;1.85;;
13325;SDS011;6732;51.044;3.746;2022-07-29T04:21:56;2.28;;;1.88;;
13325;SDS011;6732;51.044;3.746;2022-07-29T04:24:23;2.40;;;2.10;;
13325;SDS011;6732;51.044;3.746;2022-07-29T04:26:49;3.65;;;1.98;;
13325;SDS011;6732;51.044;3.746;2022-07-29T04:29:16;5.80;;;2.28;;
13325;SDS011;6732;51.044;3.746;2022-07-29T04:31:43;2.00;;;1.80;;
13325;SDS011;6732;51.044;3.746;2022-07-29T04:34:09;2.00;;;1.90;;
13325;SDS011;6732;51.044;3.746;2022-07-29T04:36:36;3.13;;;1.83;;
13325;SDS011;6732;51.044;3.746;2022-07-29T04:39:02;2.67;;;1.88;;
13325;SDS011;6732;51.044;3.746;2022-07-29T04:41:28;2.15;;;1.70;;
13325;SDS011;6732;51.044;3.746;2022-07-29T04:43:54;3.88;;;2.08;;
13325;SDS011;6732;51.044;3.746;2022-07-29T04:46:20;5.07;;;2.20;;
13325;SDS011;6732;51.044;3.746;2022-07-29T04:48:46;3.47;;;2.40;;
13325;SDS011;6732;51.044;3.746;2022-07-29T04:51:14;3.90;;;2.05;;
13325;SDS011;6732;51.044;3.746;2022-07-29T04:53:40;4.68;;;2.30;;
13325;SDS011;6732;51.044;3.746;2022-07-29T04:56:06;3.22;;;2.33;;
13325;SDS011;6732;51.044;3.746;2022-07-29T04:58:35;4.10;;;3.15;;
13325;SDS011;6732;51.044;3.746;2022-07-29T05:01:01;5.10;;;3.58;;
13325;SDS011;6732;51.044;3.746;2022-07-29T05:03:28;6.00;;;4.20;;
13325;SDS011;6732;51.044;3.746;2022-07-29T05:05:54;9.25;;;6.25;;
13325;SDS011;6732;51.044;3.746;2022-07-29T05:08:20;8.43;;;6.10;;
13325;SDS011;6732;51.044;3.746;2022-07-29T05:10:46;10.85;;;6.70;;
13325;SDS011;6732;51.044;3.746;2022-07-29T05:13:12;11.43;;;7.47;;
13325;SDS011;6732;51.044;3.746;2022-07-29T05:15:38;10.38;;;7.20;;
13325;SDS011;6732;51.044;3.746;2022-07-29T05:18:04;9.57;;;7.25;;
13325;SDS011;6732;51.044;3.746;2022-07-29T05:20:30;9.57;;;7.28;;
13325;SDS011;6732;51.044;3.746;2022-07-29T05:22:58;12.35;;;7.93;;
13325;SDS011;6732;51.044;3.746;2022-07-29T05:25:26;8.77;;;6.30;;
13325;SDS011;6732;51.044;3.746;2022-07-29T05:27:52;11.13;;;7.47;;
13325;SDS011;6732;51.044;3.746;2022-07-29T05:30:19;9.32;;;7.18;;
13325;SDS011;6732;51.044;3.746;2022-07-29T05:32:45;10.27;;;7.40;;
13325;SDS011;6732;51.044;3.746;2022-07-29T05:35:11;9.02;;;7.40;;
13325;SDS011;6732;51.044;3.746;2022-07-29T05:37:38;11.23;;;7.57;;
13325;SDS011;6732;51.044;3.746;2022-07-29T05:40:05;12.35;;;8.18;;
13325;SDS011;6732;51.044;3.746;2022-07-29T05:42:31;13.68;;;8.43;;
13325;SDS011;6732;51.044;3.746;2022-07-29T05:44:57;11.70;;;8.57;;
13325;SDS011;6732;51.044;3.746;2022-07-29T05:47:23;14.48;;;9.95;;
13325;SDS011;6732;51.044;3.746;2022-07-29T05:49:50;13.73;;;10.65;;
13325;SDS011;6732;51.044;3.746;2022-07-29T05:52:16;14.20;;;10.88;;
13325;SDS011;6732;51.044;3.746;2022-07-29T05:54:42;16.15;;;11.25;;
13325;SDS011;6732;51.044;3.746;2022-07-29T05:57:09;14.52;;;10.85;;
13325;SDS011;6732;51.044;3.746;2022-07-29T05:59:41;14.15;;;10.48;;
13325;SDS011;6732;51.044;3.746;2022-07-29T06:02:07;16.77;;;10.73;;
13325;SDS011;6732;51.044;3.746;2022-07-29T06:04:33;16.15;;;9.98;;
13325;SDS011;6732;51.044;3.746;2022-07-29T06:06:59;18.08;;;12.30;;
13325;SDS011;6732;51.044;3.746;2022-07-29T06:09:25;17.90;;;12.98;;
13325;SDS011;6732;51.044;3.746;2022-07-29T06:11:51;17.52;;;11.80;;
13325;SDS011;6732;51.044;3.746;2022-07-29T06:14:17;15.85;;;10.35;;
13325;SDS011;6732;51.044;3.746;2022-07-29T06:16:43;16.13;;;9.68;;
13325;SDS011;6732;51.044;3.746;2022-07-29T06:19:10;8.45;;;6.60;;
13325;SDS011;6732;51.044;3.746;2022-07-29T06:21:35;10.48;;;6.22;;
13325;SDS011;6732;51.044;3.746;2022-07-29T06:24:01;9.30;;;5.50;;
13325;SDS011;6732;51.044;3.746;2022-07-29T06:26:27;10.68;;;7.03;;
13325;SDS011;6732;51.044;3.746;2022-07-29T06:28:53;7.30;;;4.65;;
13325;SDS011;6732;51.044;3.746;2022-07-29T06:31:19;7.07;;;4.70;;
13325;SDS011;6732;51.044;3.746;2022-07-29T06:33:45;6.63;;;4.00;;
13325;SDS011;6732;51.044;3.746;2022-07-29T06:36:11;8.02;;;4.40;;
13325;SDS011;6732;51.044;3.746;2022-07-29T06:38:37;7.75;;;4.13;;
13325;SDS011;6732;51.044;3.746;2022-07-29T06:41:03;10.25;;;5.20;;
13325;SDS011;6732;51.044;3.746;2022-07-29T06:45:59;7.40;;;4.07;;
13325;SDS011;6732;51.044;3.746;2022-07-29T06:48:26;4.90;;;4.00;;
13325;SDS011;6732;51.044;3.746;2022-07-29T06:50:53;5.18;;;3.28;;
13325;SDS011;6732;51.044;3.746;2022-07-29T06:53:19;4.22;;;2.67;;
13325;SDS011;6732;51.044;3.746;2022-07-29T06:55:45;6.53;;;3.00;;
13325;SDS011;6732;51.044;3.746;2022-07-29T06:58:11;5.30;;;3.53;;
13325;SDS011;6732;51.044;3.746;2022-07-29T07:00:39;6.05;;;3.10;;
13325;SDS011;6732;51.044;3.746;2022-07-29T07:03:05;5.40;;;3.42;;
13325;SDS011;6732;51.044;3.746;2022-07-29T07:05:32;4.47;;;3.08;;
13325;SDS011;6732;51.044;3.746;2022-07-29T07:07:58;5.65;;;3.78;;
13325;SDS011;6732;51.044;3.746;2022-07-29T07:10:24;5.53;;;3.80;;
13325;SDS011;6732;51.044;3.746;2022-07-29T07:12:50;7.45;;;4.32;;
13325;SDS011;6732;51.044;3.746;2022-07-29T07:15:16;5.10;;;3.88;;
13325;SDS011;6732;51.044;3.746;2022-07-29T07:17:42;7.07;;;4.18;;
13325;SDS011;6732;51.044;3.746;2022-07-29T07:20:08;7.90;;;5.35;;
13325;SDS011;6732;51.044;3.746;2022-07-29T07:22:34;13.18;;;7.80;;
13325;SDS011;6732;51.044;3.746;2022-07-29T07:25:00;19.17;;;11.23;;
13325;SDS011;6732;51.044;3.746;2022-07-29T07:27:26;17.52;;;12.02;;
13325;SDS011;6732;51.044;3.746;2022-07-29T07:29:52;20.58;;;12.63;;
13325;SDS011;6732;51.044;3.746;2022-07-29T07:32:18;18.05;;;11.73;;
13325;SDS011;6732;51.044;3.746;2022-07-29T07:34:44;14.55;;;9.18;;
13325;SDS011;6732;51.044;3.746;2022-07-29T07:37:10;14.88;;;10.43;;
13325;SDS011;6732;51.044;3.746;2022-07-29T07:39:36;13.35;;;8.82;;
13325;SDS011;6732;51.044;3.746;2022-07-29T07:42:02;14.88;;;8.70;;
13325;SDS011;6732;51.044;3.746;2022-07-29T07:44:28;15.30;;;10.10;;
13325;SDS011;6732;51.044;3.746;2022-07-29T07:46:54;15.50;;;10.82;;
13325;SDS011;6732;51.044;3.746;2022-07-29T07:49:20;16.65;;;10.70;;
13325;SDS011;6732;51.044;3.746;2022-07-29T07:51:46;20.33;;;12.82;;
13325;SDS011;6732;51.044;3.746;2022-07-29T07:54:12;26.58;;;13.75;;
13325;SDS011;6732;51.044;3.746;2022-07-29T07:56:38;19.73;;;10.38;;
13325;SDS011;6732;51.044;3.746;2022-07-29T07:59:04;16.02;;;9.60;;
13325;SDS011;6732;51.044;3.746;2022-07-29T08:01:30;19.88;;;10.38;;
13325;SDS011;6732;51.044;3.746;2022-07-29T08:03:56;15.98;;;9.93;;
13325;SDS011;6732;51.044;3.746;2022-07-29T08:06:34;18.92;;;9.20;;
13325;SDS011;6732;51.044;3.746;2022-07-29T08:09:09;13.05;;;8.70;;
13325;SDS011;6732;51.044;3.746;2022-07-29T08:11:35;18.15;;;8.77;;
13325;SDS011;6732;51.044;3.746;2022-07-29T08:14:01;13.50;;;8.85;;
13325;SDS011;6732;51.044;3.746;2022-07-29T08:16:27;15.98;;;8.27;;
13325;SDS011;6732;51.044;3.746;2022-07-29T08:18:53;15.38;;;8.73;;
13325;SDS011;6732;51.044;3.746;2022-07-29T08:21:22;14.93;;;8.48;;
13325;SDS011;6732;51.044;3.746;2022-07-29T08:23:49;17.42;;;8.73;;
13325;SDS011;6732;51.044;3.746;2022-07-29T08:26:20;12.05;;;8.52;;
13325;SDS011;6732;51.044;3.746;2022-07-29T08:28:47;15.80;;;8.57;;
13325;SDS011;6732;51.044;3.746;2022-07-29T08:31:15;14.95;;;8.85;;
13325;SDS011;6732;51.044;3.746;2022-07-29T08:33:42;15.27;;;7.38;;
13325;SDS011;6732;51.044;3.746;2022-07-29T08:36:08;12.68;;;6.60;;
13325;SDS011;6732;51.044;3.746;2022-07-29T08:38:34;10.70;;;6.10;;
13325;SDS011;6732;51.044;3.746;2022-07-29T08:41:00;9.10;;;5.75;;
13325;SDS011;6732;51.044;3.746;2022-07-29T08:43:30;10.82;;;5.38;;
13325;SDS011;6732;51.044;3.746;2022-07-29T08:45:56;5.72;;;3.97;;
13325;SDS011;6732;51.044;3.746;2022-07-29T08:48:23;8.48;;;3.58;;
13325;SDS011;6732;51.044;3.746;2022-07-29T08:50:52;5.60;;;3.08;;
13325;SDS011;6732;51.044;3.746;2022-07-29T08:53:20;7.18;;;3.13;;
13325;SDS011;6732;51.044;3.746;2022-07-29T08:55:47;10.18;;;3.88;;
13325;SDS011;6732;51.044;3.746;2022-07-29T08:58:15;4.68;;;3.88;;
13325;SDS011;6732;51.044;3.746;2022-07-29T09:00:43;8.30;;;3.83;;
13325;SDS011;6732;51.044;3.746;2022-07-29T09:03:15;7.15;;;4.43;;
13325;SDS011;6732;51.044;3.746;2022-07-29T09:05:43;5.70;;;3.65;;
13325;SDS011;6732;51.044;3.746;2022-07-29T09:08:10;5.38;;;3.60;;
13325;SDS011;6732;51.044;3.746;2022-07-29T09:10:38;6.30;;;3.28;;
13325;SDS011;6732;51.044;3.746;2022-07-29T09:13:04;5.82;;;2.88;;
13325;SDS011;6732;51.044;3.746;2022-07-29T09:15:31;6.25;;;3.05;;
13325;SDS011;6732;51.044;3.746;2022-07-29T09:17:57;4.70;;;2.72;;
13325;SDS011;6732;51.044;3.746;2022-07-29T09:20:25;5.85;;;2.90;;
13325;SDS011;6732;51.044;3.746;2022-07-29T09:22:52;4.55;;;2.58;;
13325;SDS011;6732;51.044;3.746;2022-07-29T09:25:36;4.57;;;2.97;;
13325;SDS011;6732;51.044;3.746;2022-07-29T09:28:07;5.38;;;2.85;;
13325;SDS011;6732;51.044;3.746;2022-07-29T09:30:49;5.90;;;2.60;;
13325;SDS011;6732;51.044;3.746;2022-07-29T09:33:31;7.05;;;3.05;;
13325;SDS011;6732;51.044;3.746;2022-07-29T09:36:00;4.28;;;2.90;;
13325;SDS011;6732;51.044;3.746;2022-07-29T09:38:32;4.43;;;2.60;;
13325;SDS011;6732;51.044;3.746;2022-07-29T09:41:00;4.72;;;2.67;;
13325;SDS011;6732;51.044;3.746;2022-07-29T09:43:27;5.28;;;2.80;;
13325;SDS011;6732;51.044;3.746;2022-07-29T09:45:53;5.22;;;3.00;;
13325;SDS011;6732;51.044;3.746;2022-07-29T09:48:21;4.82;;;2.83;;
13325;SDS011;6732;51.044;3.746;2022-07-29T09:50:49;5.93;;;2.65;;
13325;SDS011;6732;51.044;3.746;2022-07-29T09:53:29;3.95;;;2.60;;
13325;SDS011;6732;51.044;3.746;2022-07-29T09:55:57;5.90;;;2.50;;
13325;SDS011;6732;51.044;3.746;2022-07-29T09:58:23;4.25;;;2.65;;
13325;SDS011;6732;51.044;3.746;2022-07-29T10:00:50;3.25;;;2.15;;
13325;SDS011;6732;51.044;3.746;2022-07-29T10:03:17;4.00;;;2.30;;
13325;SDS011;6732;51.044;3.746;2022-07-29T10:05:43;4.50;;;2.30;;
13325;SDS011;6732;51.044;3.746;2022-07-29T10:08:11;6.45;;;2.60;;
13325;SDS011;6732;51.044;3.746;2022-07-29T10:10:41;3.58;;;2.33;;
13325;SDS011;6732;51.044;3.746;2022-07-29T10:13:08;3.90;;;2.42;;
13325;SDS011;6732;51.044;3.746;2022-07-29T10:15:36;5.80;;;2.28;;
13325;SDS011;6732;51.044;3.746;2022-07-29T10:18:09;5.13;;;2.35;;
13325;SDS011;6732;51.044;3.746;2022-07-29T10:20:37;2.65;;;2.17;;
13325;SDS011;6732;51.044;3.746;2022-07-29T10:23:04;4.00;;;2.30;;
13325;SDS011;6732;51.044;3.746;2022-07-29T10:25:31;5.95;;;1.98;;
13325;SDS011;6732;51.044;3.746;2022-07-29T10:27:57;4.57;;;2.00;;
13325;SDS011;6732;51.044;3.746;2022-07-29T10:30:24;3.55;;;2.10;;
13325;SDS011;6732;51.044;3.746;2022-07-29T10:41:46;3.58;;;1.75;;
13325;SDS011;6732;51.044;3.746;2022-07-29T10:46:34;3.22;;;2.00;;
13325;SDS011;6732;51.044;3.746;2022-07-29T10:51:51;4.70;;;2.75;;
13325;SDS011;6732;51.044;3.746;2022-07-29T10:57:12;5.72;;;1.80;;
13325;SDS011;6732;51.044;3.746;2022-07-29T10:59:47;2.65;;;1.73;;
13325;SDS011;6732;51.044;3.746;2022-07-29T11:02:40;2.92;;;1.58;;
13325;SDS011;6732;51.044;3.746;2022-07-29T11:08:16;2.42;;;1.80;;
13325;SDS011;6732;51.044;3.746;2022-07-29T11:10:37;4.55;;;1.65;;
13325;SDS011;6732;51.044;3.746;2022-07-29T11:13:04;3.40;;;1.60;;
13325;SDS011;6732;51.044;3.746;2022-07-29T11:15:51;1.67;;;1.40;;
13325;SDS011;6732;51.044;3.746;2022-07-29T11:18:23;5.35;;;1.60;;
13325;SDS011;6732;51.044;3.746;2022-07-29T11:20:50;3.45;;;1.73;;
13325;SDS011;6732;51.044;3.746;2022-07-29T11:23:26;2.92;;;1.58;;
13325;SDS011;6732;51.044;3.746;2022-07-29T11:28:36;3.30;;;1.80;;
13325;SDS011;6732;51.044;3.746;2022-07-29T11:31:13;4.63;;;1.67;;
13325;SDS011;6732;51.044;3.746;2022-07-29T11:33:56;2.70;;;1.90;;
13325;SDS011;6732;51.044;3.746;2022-07-29T11:36:22;3.13;;;1.63;;
13325;SDS011;6732;51.044;3.746;2022-07-29T11:38:48;3.03;;;1.50;;
13325;SDS011;6732;51.044;3.746;2022-07-29T11:43:53;5.22;;;1.85;;
13325;SDS011;6732;51.044;3.746;2022-07-29T11:49:20;3.00;;;1.70;;
13325;SDS011;6732;51.044;3.746;2022-07-29T11:51:55;4.15;;;1.88;;
13325;SDS011;6732;51.044;3.746;2022-07-29T11:54:26;3.42;;;2.20;;
13325;SDS011;6732;51.044;3.746;2022-07-29T11:56:57;2.97;;;1.73;;
13325;SDS011;6732;51.044;3.746;2022-07-29T11:59:24;3.50;;;2.13;;
13325;SDS011;6732;51.044;3.746;2022-07-29T12:01:57;2.78;;;2.08;;
13325;SDS011;6732;51.044;3.746;2022-07-29T12:04:24;4.90;;;2.20;;
13325;SDS011;6732;51.044;3.746;2022-07-29T12:06:52;2.50;;;2.10;;
13325;SDS011;6732;51.044;3.746;2022-07-29T12:09:19;3.70;;;2.08;;
13325;SDS011;6732;51.044;3.746;2022-07-29T12:11:46;4.20;;;1.98;;
13325;SDS011;6732;51.044;3.746;2022-07-29T12:14:32;3.42;;;2.42;;
13325;SDS011;6732;51.044;3.746;2022-07-29T12:16:59;4.28;;;2.00;;
13325;SDS011;6732;51.044;3.746;2022-07-29T12:19:28;5.05;;;2.50;;
13325;SDS011;6732;51.044;3.746;2022-07-29T12:21:54;4.18;;;1.95;;
13325;SDS011;6732;51.044;3.746;2022-07-29T12:24:23;2.83;;;1.75;;
13325;SDS011;6732;51.044;3.746;2022-07-29T12:29:15;4.03;;;2.13;;
13325;SDS011;6732;51.044;3.746;2022-07-29T12:31:43;3.70;;;2.00;;
13325;SDS011;6732;51.044;3.746;2022-07-29T12:34:10;3.03;;;1.80;;
13325;SDS011;6732;51.044;3.746;2022-07-29T12:36:38;2.53;;;1.80;;
13325;SDS011;6732;51.044;3.746;2022-07-29T12:39:04;5.35;;;1.95;;
13325;SDS011;6732;51.044;3.746;2022-07-29T12:41:30;3.92;;;2.40;;
13325;SDS011;6732;51.044;3.746;2022-07-29T12:43:56;2.35;;;1.95;;
13325;SDS011;6732;51.044;3.746;2022-07-29T12:46:22;2.83;;;1.85;;
13325;SDS011;6732;51.044;3.746;2022-07-29T12:48:52;6.75;;;2.55;;
13325;SDS011;6732;51.044;3.746;2022-07-29T12:51:29;3.83;;;1.73;;
13325;SDS011;6732;51.044;3.746;2022-07-29T12:54:12;4.80;;;1.90;;
13325;SDS011;6732;51.044;3.746;2022-07-29T12:56:40;3.25;;;1.67;;
13325;SDS011;6732;51.044;3.746;2022-07-29T12:59:18;3.38;;;1.88;;
13325;SDS011;6732;51.044;3.746;2022-07-29T13:01:46;1.73;;;1.50;;
13325;SDS011;6732;51.044;3.746;2022-07-29T13:04:27;2.83;;;1.80;;
13325;SDS011;6732;51.044;3.746;2022-07-29T13:09:35;2.95;;;1.83;;
13325;SDS011;6732;51.044;3.746;2022-07-29T13:12:09;3.42;;;1.92;;
13325;SDS011;6732;51.044;3.746;2022-07-29T13:14:39;4.20;;;1.95;;
13325;SDS011;6732;51.044;3.746;2022-07-29T13:17:10;4.65;;;1.90;;
13325;SDS011;6732;51.044;3.746;2022-07-29T13:19:39;6.47;;;2.20;;
13325;SDS011;6732;51.044;3.746;2022-07-29T13:22:17;5.60;;;2.35;;
13325;SDS011;6732;51.044;3.746;2022-07-29T13:24:55;3.08;;;1.88;;
13325;SDS011;6732;51.044;3.746;2022-07-29T13:27:22;2.83;;;1.80;;
13325;SDS011;6732;51.044;3.746;2022-07-29T13:29:50;2.42;;;2.05;;
13325;SDS011;6732;51.044;3.746;2022-07-29T13:32:18;3.50;;;1.98;;
13325;SDS011;6732;51.044;3.746;2022-07-29T13:34:44;4.68;;;2.30;;
13325;SDS011;6732;51.044;3.746;2022-07-29T13:37:10;6.07;;;2.72;;
13325;SDS011;6732;51.044;3.746;2022-07-29T13:39:36;3.47;;;2.10;;
13325;SDS011;6732;51.044;3.746;2022-07-29T13:42:03;4.57;;;1.88;;
13325;SDS011;6732;51.044;3.746;2022-07-29T13:44:29;2.50;;;2.00;;
13325;SDS011;6732;51.044;3.746;2022-07-29T13:46:55;3.92;;;2.13;;
13325;SDS011;6732;51.044;3.746;2022-07-29T13:49:23;2.25;;;2.03;;
13325;SDS011;6732;51.044;3.746;2022-07-29T13:51:50;4.13;;;2.50;;
13325;SDS011;6732;51.044;3.746;2022-07-29T13:54:16;3.95;;;2.00;;
13325;SDS011;6732;51.044;3.746;2022-07-29T13:56:41;5.97;;;2.03;;
13325;SDS011;6732;51.044;3.746;2022-07-29T13:59:07;4.63;;;1.95;;
13325;SDS011;6732;51.044;3.746;2022-07-29T14:01:34;4.90;;;1.90;;
13325;SDS011;6732;51.044;3.746;2022-07-29T14:04:00;4.68;;;2.00;;
13325;SDS011;6732;51.044;3.746;2022-07-29T14:06:26;2.65;;;1.80;;
13325;SDS011;6732;51.044;3.746;2022-07-29T14:08:53;4.63;;;1.80;;
13325;SDS011;6732;51.044;3.746;2022-07-29T14:11:18;5.07;;;2.10;;
13325;SDS011;6732;51.044;3.746;2022-07-29T14:13:45;2.72;;;1.60;;
13325;SDS011;6732;51.044;3.746;2022-07-29T14:16:11;5.63;;;2.17;;
13325;SDS011;6732;51.044;3.746;2022-07-29T14:18:37;3.03;;;1.88;;
13325;SDS011;6732;51.044;3.746;2022-07-29T14:21:03;2.78;;;1.88;;
13325;SDS011;6732;51.044;3.746;2022-07-29T14:23:29;3.30;;;1.67;;
13325;SDS011;6732;51.044;3.746;2022-07-29T14:25:55;2.92;;;1.90;;
13325;SDS011;6732;51.044;3.746;2022-07-29T14:28:21;5.20;;;2.00;;
13325;SDS011;6732;51.044;3.746;2022-07-29T14:30:47;2.55;;;1.70;;
13325;SDS011;6732;51.044;3.746;2022-07-29T14:33:13;5.22;;;2.00;;
13325;SDS011;6732;51.044;3.746;2022-07-29T14:35:39;2.72;;;1.77;;
13325;SDS011;6732;51.044;3.746;2022-07-29T14:38:05;3.22;;;1.90;;
13325;SDS011;6732;51.044;3.746;2022-07-29T14:40:31;4.18;;;2.15;;
13325;SDS011;6732;51.044;3.746;2022-07-29T14:42:57;3.47;;;1.80;;
13325;SDS011;6732;51.044;3.746;2022-07-29T14:45:23;4.38;;;1.63;;
13325;SDS011;6732;51.044;3.746;2022-07-29T14:47:49;3.55;;;1.50;;
13325;SDS011;6732;51.044;3.746;2022-07-29T14:50:16;3.03;;;1.55;;
13325;SDS011;6732;51.044;3.746;2022-07-29T14:52:43;3.00;;;1.67;;
13325;SDS011;6732;51.044;3.746;2022-07-29T14:55:09;2.47;;;1.60;;
13325;SDS011;6732;51.044;3.746;2022-07-29T14:57:35;4.57;;;1.63;;
13325;SDS011;6732;51.044;3.746;2022-07-29T15:00:03;4.55;;;1.63;;
13325;SDS011;6732;51.044;3.746;2022-07-29T15:02:32;3.05;;;1.55;;
13325;SDS011;6732;51.044;3.746;2022-07-29T15:04:58;5.07;;;2.22;;
13325;SDS011;6732;51.044;3.746;2022-07-29T15:07:25;3.03;;;1.80;;
13325;SDS011;6732;51.044;3.746;2022-07-29T15:09:51;3.17;;;1.73;;
13325;SDS011;6732;51.044;3.746;2022-07-29T15:12:17;3.22;;;1.80;;
13325;SDS011;6732;51.044;3.746;2022-07-29T15:14:43;2.92;;;1.75;;
13325;SDS011;6732;51.044;3.746;2022-07-29T15:17:08;3.17;;;1.73;;
13325;SDS011;6732;51.044;3.746;2022-07-29T15:19:35;5.00;;;1.90;;
13325;SDS011;6732;51.044;3.746;2022-07-29T15:22:01;4.88;;;1.88;;
13325;SDS011;6732;51.044;3.746;2022-07-29T15:24:27;2.83;;;1.95;;
13325;SDS011;6732;51.044;3.746;2022-07-29T15:26:53;2.88;;;1.75;;
13325;SDS011;6732;51.044;3.746;2022-07-29T15:29:19;5.03;;;1.85;;
13325;SDS011;6732;51.044;3.746;2022-07-29T15:31:45;6.45;;;1.70;;
13325;SDS011;6732;51.044;3.746;2022-07-29T15:34:11;2.30;;;1.70;;
13325;SDS011;6732;51.044;3.746;2022-07-29T15:36:37;4.68;;;2.00;;
13325;SDS011;6732;51.044;3.746;2022-07-29T15:39:03;5.43;;;1.73;;
13325;SDS011;6732;51.044;3.746;2022-07-29T15:41:29;4.75;;;1.70;;
13325;SDS011;6732;51.044;3.746;2022-07-29T15:43:55;4.03;;;1.83;;
13325;SDS011;6732;51.044;3.746;2022-07-29T15:46:21;4.25;;;2.05;;
13325;SDS011;6732;51.044;3.746;2022-07-29T15:49:05;4.18;;;1.90;;
13325;SDS011;6732;51.044;3.746;2022-07-29T15:51:32;4.40;;;1.60;;
13325;SDS011;6732;51.044;3.746;2022-07-29T15:54:00;3.47;;;2.35;;
13325;SDS011;6732;51.044;3.746;2022-07-29T15:56:26;5.57;;;1.80;;